sensor_id;sensor_type;location;lat;lon;timestamp;P1;durP1;ratioP1;P2;durP2;ratioP2
4268;SDS011;2148;48.554;7.834;2023-08-06T00:01:58;3.23;;;2.93;;
4268;SDS011;2148;48.554;7.834;2023-08-06T00:04:23;3.30;;;3.00;;
4268;SDS011;2148;48.554;7.834;2023-08-06T00:06:48;2.83;;;2.63;;
4268;SDS011;2148;48.554;7.834;2023-08-06T00:09:13;3.10;;;2.80;;
4268;SDS011;2148;48.554;7.834;2023-08-06T00:11:39;3.43;;;3.00;;
4268;SDS011;2148;48.554;7.834;2023-08-06T00:14:06;3.17;;;2.87;;
4268;SDS011;2148;48.554;7.834;2023-08-06T00:16:34;3.30;;;3.00;;
4268;SDS011;2148;48.554;7.834;2023-08-06T00:19:00;3.83;;;2.90;;
4268;SDS011;2148;48.554;7.834;2023-08-06T00:21:25;2.83;;;2.63;;
4268;SDS011;2148;48.554;7.834;2023-08-06T00:23:50;3.60;;;2.90;;
4268;SDS011;2148;48.554;7.834;2023-08-06T00:26:17;3.37;;;3.00;;
4268;SDS011;2148;48.554;7.834;2023-08-06T00:28:42;3.40;;;3.10;;
4268;SDS011;2148;48.554;7.834;2023-08-06T00:31:07;2.97;;;2.77;;
4268;SDS011;2148;48.554;7.834;2023-08-06T00:33:33;3.13;;;2.80;;
4268;SDS011;2148;48.554;7.834;2023-08-06T00:35:58;3.13;;;2.93;;
4268;SDS011;2148;48.554;7.834;2023-08-06T00:38:23;3.77;;;3.30;;
4268;SDS011;2148;48.554;7.834;2023-08-06T00:40:48;3.53;;;3.20;;
4268;SDS011;2148;48.554;7.834;2023-08-06T00:43:13;3.30;;;3.00;;
4268;SDS011;2148;48.554;7.834;2023-08-06T00:45:39;4.50;;;3.10;;
4268;SDS011;2148;48.554;7.834;2023-08-06T00:48:04;4.67;;;3.20;;
4268;SDS011;2148;48.554;7.834;2023-08-06T00:50:31;3.83;;;3.40;;
4268;SDS011;2148;48.554;7.834;2023-08-06T00:52:56;3.43;;;3.00;;
4268;SDS011;2148;48.554;7.834;2023-08-06T00:55:21;4.10;;;3.27;;
4268;SDS011;2148;48.554;7.834;2023-08-06T00:57:47;4.10;;;3.50;;
4268;SDS011;2148;48.554;7.834;2023-08-06T01:00:12;3.57;;;3.20;;
4268;SDS011;2148;48.554;7.834;2023-08-06T01:02:37;4.07;;;3.30;;
4268;SDS011;2148;48.554;7.834;2023-08-06T01:05:03;3.57;;;3.27;;
4268;SDS011;2148;48.554;7.834;2023-08-06T01:07:37;3.63;;;3.27;;
4268;SDS011;2148;48.554;7.834;2023-08-06T01:15:29;5.73;;;4.33;;
4268;SDS011;2148;48.554;7.834;2023-08-06T01:17:57;3.50;;;3.20;;
4268;SDS011;2148;48.554;7.834;2023-08-06T01:20:27;4.30;;;3.90;;
4268;SDS011;2148;48.554;7.834;2023-08-06T01:22:53;7.27;;;3.37;;
4268;SDS011;2148;48.554;7.834;2023-08-06T01:25:18;4.67;;;3.40;;
4268;SDS011;2148;48.554;7.834;2023-08-06T01:27:44;5.33;;;4.17;;
4268;SDS011;2148;48.554;7.834;2023-08-06T01:30:13;4.53;;;3.60;;
4268;SDS011;2148;48.554;7.834;2023-08-06T01:32:45;4.20;;;3.80;;
4268;SDS011;2148;48.554;7.834;2023-08-06T01:35:14;4.47;;;3.73;;
4268;SDS011;2148;48.554;7.834;2023-08-06T01:37:43;4.23;;;3.43;;
4268;SDS011;2148;48.554;7.834;2023-08-06T01:40:12;5.10;;;3.47;;
4268;SDS011;2148;48.554;7.834;2023-08-06T01:42:38;3.50;;;3.20;;
4268;SDS011;2148;48.554;7.834;2023-08-06T01:45:04;4.10;;;3.40;;
4268;SDS011;2148;48.554;7.834;2023-08-06T01:47:30;3.93;;;3.53;;
4268;SDS011;2148;48.554;7.834;2023-08-06T01:49:55;4.10;;;3.70;;
4268;SDS011;2148;48.554;7.834;2023-08-06T01:52:21;3.83;;;3.43;;
4268;SDS011;2148;48.554;7.834;2023-08-06T01:54:46;5.00;;;3.53;;
4268;SDS011;2148;48.554;7.834;2023-08-06T01:57:11;3.20;;;2.87;;
4268;SDS011;2148;48.554;7.834;2023-08-06T01:59:36;3.90;;;3.30;;
4268;SDS011;2148;48.554;7.834;2023-08-06T02:02:02;8.50;;;4.00;;
4268;SDS011;2148;48.554;7.834;2023-08-06T02:04:27;3.80;;;3.40;;
4268;SDS011;2148;48.554;7.834;2023-08-06T02:06:53;4.17;;;3.67;;
4268;SDS011;2148;48.554;7.834;2023-08-06T02:09:18;4.10;;;3.40;;
4268;SDS011;2148;48.554;7.834;2023-08-06T02:11:43;4.37;;;3.37;;
4268;SDS011;2148;48.554;7.834;2023-08-06T02:14:08;4.63;;;3.63;;
4268;SDS011;2148;48.554;7.834;2023-08-06T02:16:34;4.53;;;3.53;;
4268;SDS011;2148;48.554;7.834;2023-08-06T02:18:59;4.00;;;3.70;;
4268;SDS011;2148;48.554;7.834;2023-08-06T02:21:24;3.80;;;3.50;;
4268;SDS011;2148;48.554;7.834;2023-08-06T02:23:50;3.50;;;3.20;;
4268;SDS011;2148;48.554;7.834;2023-08-06T02:26:15;3.10;;;2.60;;
4268;SDS011;2148;48.554;7.834;2023-08-06T02:28:40;3.73;;;3.40;;
4268;SDS011;2148;48.554;7.834;2023-08-06T02:31:05;3.13;;;2.83;;
4268;SDS011;2148;48.554;7.834;2023-08-06T02:33:31;3.67;;;3.37;;
4268;SDS011;2148;48.554;7.834;2023-08-06T02:36:00;3.83;;;3.23;;
4268;SDS011;2148;48.554;7.834;2023-08-06T02:38:27;4.70;;;3.43;;
4268;SDS011;2148;48.554;7.834;2023-08-06T02:40:52;3.30;;;3.00;;
4268;SDS011;2148;48.554;7.834;2023-08-06T02:43:17;4.27;;;3.43;;
4268;SDS011;2148;48.554;7.834;2023-08-06T02:45:42;4.97;;;3.13;;
4268;SDS011;2148;48.554;7.834;2023-08-06T02:48:08;3.07;;;2.80;;
4268;SDS011;2148;48.554;7.834;2023-08-06T02:50:42;3.27;;;2.97;;
4268;SDS011;2148;48.554;7.834;2023-08-06T02:53:07;3.70;;;3.40;;
4268;SDS011;2148;48.554;7.834;2023-08-06T02:55:33;3.87;;;3.57;;
4268;SDS011;2148;48.554;7.834;2023-08-06T02:57:59;4.03;;;3.30;;
4268;SDS011;2148;48.554;7.834;2023-08-06T03:00:25;3.60;;;3.33;;
4268;SDS011;2148;48.554;7.834;2023-08-06T03:02:51;3.80;;;3.40;;
4268;SDS011;2148;48.554;7.834;2023-08-06T03:05:16;3.17;;;2.97;;
4268;SDS011;2148;48.554;7.834;2023-08-06T03:07:41;3.37;;;3.07;;
4268;SDS011;2148;48.554;7.834;2023-08-06T03:10:07;3.60;;;3.37;;
4268;SDS011;2148;48.554;7.834;2023-08-06T03:12:32;3.93;;;3.63;;
4268;SDS011;2148;48.554;7.834;2023-08-06T03:14:57;4.23;;;3.83;;
4268;SDS011;2148;48.554;7.834;2023-08-06T03:17:22;3.90;;;3.60;;
4268;SDS011;2148;48.554;7.834;2023-08-06T03:19:48;3.90;;;3.43;;
4268;SDS011;2148;48.554;7.834;2023-08-06T03:22:13;4.07;;;3.70;;
4268;SDS011;2148;48.554;7.834;2023-08-06T03:24:38;3.57;;;3.37;;
4268;SDS011;2148;48.554;7.834;2023-08-06T03:27:04;3.43;;;3.03;;
4268;SDS011;2148;48.554;7.834;2023-08-06T03:29:29;3.63;;;2.90;;
4268;SDS011;2148;48.554;7.834;2023-08-06T03:31:54;3.40;;;3.10;;
4268;SDS011;2148;48.554;7.834;2023-08-06T03:34:20;3.50;;;3.20;;
4268;SDS011;2148;48.554;7.834;2023-08-06T03:36:45;4.87;;;3.40;;
4268;SDS011;2148;48.554;7.834;2023-08-06T03:39:10;3.50;;;3.07;;
4268;SDS011;2148;48.554;7.834;2023-08-06T03:41:35;3.13;;;2.83;;
4268;SDS011;2148;48.554;7.834;2023-08-06T03:44:01;4.13;;;2.70;;
4268;SDS011;2148;48.554;7.834;2023-08-06T03:46:28;3.80;;;2.70;;
4268;SDS011;2148;48.554;7.834;2023-08-06T03:48:54;3.10;;;2.80;;
4268;SDS011;2148;48.554;7.834;2023-08-06T03:51:19;3.27;;;2.50;;
4268;SDS011;2148;48.554;7.834;2023-08-06T03:53:44;3.70;;;2.70;;
4268;SDS011;2148;48.554;7.834;2023-08-06T03:56:09;2.57;;;2.27;;
4268;SDS011;2148;48.554;7.834;2023-08-06T03:58:35;3.70;;;2.33;;
4268;SDS011;2148;48.554;7.834;2023-08-06T04:01:00;3.00;;;2.50;;
4268;SDS011;2148;48.554;7.834;2023-08-06T04:03:26;2.50;;;2.30;;
4268;SDS011;2148;48.554;7.834;2023-08-06T04:05:52;3.80;;;2.90;;
4268;SDS011;2148;48.554;7.834;2023-08-06T04:08:17;2.70;;;2.07;;
4268;SDS011;2148;48.554;7.834;2023-08-06T04:10:42;2.93;;;2.57;;
4268;SDS011;2148;48.554;7.834;2023-08-06T04:13:08;5.20;;;3.00;;
4268;SDS011;2148;48.554;7.834;2023-08-06T04:15:33;4.60;;;2.30;;
4268;SDS011;2148;48.554;7.834;2023-08-06T04:17:59;3.03;;;2.73;;
4268;SDS011;2148;48.554;7.834;2023-08-06T04:20:24;3.00;;;2.50;;
4268;SDS011;2148;48.554;7.834;2023-08-06T04:22:49;2.20;;;2.10;;
4268;SDS011;2148;48.554;7.834;2023-08-06T04:25:15;2.83;;;2.23;;
4268;SDS011;2148;48.554;7.834;2023-08-06T04:27:45;3.53;;;2.20;;
4268;SDS011;2148;48.554;7.834;2023-08-06T04:30:11;4.77;;;2.70;;
4268;SDS011;2148;48.554;7.834;2023-08-06T04:32:37;3.43;;;2.13;;
4268;SDS011;2148;48.554;7.834;2023-08-06T04:35:02;2.57;;;2.30;;
4268;SDS011;2148;48.554;7.834;2023-08-06T04:37:28;2.80;;;2.10;;
4268;SDS011;2148;48.554;7.834;2023-08-06T04:39:53;3.20;;;2.40;;
4268;SDS011;2148;48.554;7.834;2023-08-06T04:42:18;3.90;;;2.33;;
4268;SDS011;2148;48.554;7.834;2023-08-06T04:44:43;2.43;;;2.10;;
4268;SDS011;2148;48.554;7.834;2023-08-06T04:47:09;2.67;;;2.20;;
4268;SDS011;2148;48.554;7.834;2023-08-06T04:49:34;2.20;;;1.70;;
4268;SDS011;2148;48.554;7.834;2023-08-06T04:51:59;3.37;;;2.00;;
4268;SDS011;2148;48.554;7.834;2023-08-06T04:54:25;2.87;;;2.03;;
4268;SDS011;2148;48.554;7.834;2023-08-06T04:56:50;2.00;;;1.90;;
4268;SDS011;2148;48.554;7.834;2023-08-06T04:59:15;2.30;;;2.10;;
4268;SDS011;2148;48.554;7.834;2023-08-06T05:01:40;2.33;;;2.07;;
4268;SDS011;2148;48.554;7.834;2023-08-06T05:04:06;2.20;;;2.00;;
4268;SDS011;2148;48.554;7.834;2023-08-06T05:06:31;1.97;;;1.87;;
4268;SDS011;2148;48.554;7.834;2023-08-06T05:08:56;2.27;;;2.10;;
4268;SDS011;2148;48.554;7.834;2023-08-06T05:11:21;2.20;;;2.00;;
4268;SDS011;2148;48.554;7.834;2023-08-06T05:13:47;1.93;;;1.83;;
4268;SDS011;2148;48.554;7.834;2023-08-06T05:16:12;2.90;;;1.90;;
4268;SDS011;2148;48.554;7.834;2023-08-06T05:18:37;2.20;;;2.00;;
4268;SDS011;2148;48.554;7.834;2023-08-06T05:21:02;1.70;;;1.60;;
4268;SDS011;2148;48.554;7.834;2023-08-06T05:23:28;1.67;;;1.57;;
4268;SDS011;2148;48.554;7.834;2023-08-06T05:25:53;1.70;;;1.60;;
4268;SDS011;2148;48.554;7.834;2023-08-06T05:28:18;1.60;;;1.50;;
4268;SDS011;2148;48.554;7.834;2023-08-06T05:30:43;1.70;;;1.60;;
4268;SDS011;2148;48.554;7.834;2023-08-06T05:33:09;2.00;;;1.70;;
4268;SDS011;2148;48.554;7.834;2023-08-06T05:35:34;1.87;;;1.77;;
4268;SDS011;2148;48.554;7.834;2023-08-06T05:37:59;2.07;;;1.90;;
4268;SDS011;2148;48.554;7.834;2023-08-06T05:40:24;1.93;;;1.73;;
4268;SDS011;2148;48.554;7.834;2023-08-06T05:42:50;2.77;;;1.80;;
4268;SDS011;2148;48.554;7.834;2023-08-06T05:45:16;2.73;;;1.93;;
4268;SDS011;2148;48.554;7.834;2023-08-06T05:47:41;2.47;;;2.07;;
4268;SDS011;2148;48.554;7.834;2023-08-06T05:50:07;1.93;;;1.83;;
4268;SDS011;2148;48.554;7.834;2023-08-06T05:52:33;2.30;;;1.80;;
4268;SDS011;2148;48.554;7.834;2023-08-06T05:54:59;2.43;;;1.90;;
4268;SDS011;2148;48.554;7.834;2023-08-06T05:57:24;2.40;;;2.20;;
4268;SDS011;2148;48.554;7.834;2023-08-06T05:59:49;2.20;;;1.90;;
4268;SDS011;2148;48.554;7.834;2023-08-06T06:02:14;2.43;;;2.23;;
4268;SDS011;2148;48.554;7.834;2023-08-06T06:04:41;2.03;;;1.80;;
4268;SDS011;2148;48.554;7.834;2023-08-06T06:07:06;2.10;;;2.00;;
4268;SDS011;2148;48.554;7.834;2023-08-06T06:09:31;3.23;;;2.00;;
4268;SDS011;2148;48.554;7.834;2023-08-06T06:11:56;3.33;;;1.80;;
4268;SDS011;2148;48.554;7.834;2023-08-06T06:14:22;2.20;;;2.00;;
4268;SDS011;2148;48.554;7.834;2023-08-06T06:16:47;2.20;;;2.00;;
4268;SDS011;2148;48.554;7.834;2023-08-06T06:19:12;3.30;;;2.30;;
4268;SDS011;2148;48.554;7.834;2023-08-06T06:21:38;2.80;;;1.80;;
4268;SDS011;2148;48.554;7.834;2023-08-06T06:24:04;2.67;;;2.03;;
4268;SDS011;2148;48.554;7.834;2023-08-06T06:26:30;2.60;;;2.10;;
4268;SDS011;2148;48.554;7.834;2023-08-06T06:28:55;3.00;;;1.93;;
4268;SDS011;2148;48.554;7.834;2023-08-06T06:31:20;3.07;;;2.00;;
4268;SDS011;2148;48.554;7.834;2023-08-06T06:33:46;2.00;;;1.90;;
4268;SDS011;2148;48.554;7.834;2023-08-06T06:36:11;4.27;;;2.00;;
4268;SDS011;2148;48.554;7.834;2023-08-06T06:38:36;2.17;;;1.90;;
4268;SDS011;2148;48.554;7.834;2023-08-06T06:41:01;3.40;;;2.03;;
4268;SDS011;2148;48.554;7.834;2023-08-06T06:43:28;2.57;;;2.20;;
4268;SDS011;2148;48.554;7.834;2023-08-06T06:45:55;3.83;;;2.03;;
4268;SDS011;2148;48.554;7.834;2023-08-06T06:48:22;2.37;;;2.10;;
4268;SDS011;2148;48.554;7.834;2023-08-06T06:50:48;1.80;;;1.70;;
4268;SDS011;2148;48.554;7.834;2023-08-06T06:53:13;2.00;;;1.90;;
4268;SDS011;2148;48.554;7.834;2023-08-06T06:55:39;2.20;;;2.00;;
4268;SDS011;2148;48.554;7.834;2023-08-06T06:58:04;2.83;;;2.17;;
4268;SDS011;2148;48.554;7.834;2023-08-06T07:00:29;2.57;;;2.03;;
4268;SDS011;2148;48.554;7.834;2023-08-06T07:02:54;3.50;;;2.00;;
4268;SDS011;2148;48.554;7.834;2023-08-06T07:05:19;2.87;;;1.80;;
4268;SDS011;2148;48.554;7.834;2023-08-06T07:07:45;2.03;;;1.90;;
4268;SDS011;2148;48.554;7.834;2023-08-06T07:10:10;2.83;;;2.00;;
4268;SDS011;2148;48.554;7.834;2023-08-06T07:12:36;3.33;;;2.03;;
4268;SDS011;2148;48.554;7.834;2023-08-06T07:15:02;2.23;;;2.00;;
4268;SDS011;2148;48.554;7.834;2023-08-06T07:17:29;2.73;;;1.80;;
4268;SDS011;2148;48.554;7.834;2023-08-06T07:19:55;2.20;;;1.80;;
4268;SDS011;2148;48.554;7.834;2023-08-06T07:22:20;2.20;;;2.00;;
4268;SDS011;2148;48.554;7.834;2023-08-06T07:24:45;2.10;;;1.90;;
4268;SDS011;2148;48.554;7.834;2023-08-06T07:27:10;2.50;;;2.23;;
4268;SDS011;2148;48.554;7.834;2023-08-06T07:29:36;4.47;;;3.47;;
4268;SDS011;2148;48.554;7.834;2023-08-06T07:32:01;3.33;;;2.10;;
4268;SDS011;2148;48.554;7.834;2023-08-06T07:34:26;4.70;;;2.40;;
4268;SDS011;2148;48.554;7.834;2023-08-06T07:36:51;2.33;;;1.90;;
4268;SDS011;2148;48.554;7.834;2023-08-06T07:39:17;3.00;;;2.00;;
4268;SDS011;2148;48.554;7.834;2023-08-06T07:41:42;2.17;;;2.07;;
4268;SDS011;2148;48.554;7.834;2023-08-06T07:44:07;3.63;;;2.10;;
4268;SDS011;2148;48.554;7.834;2023-08-06T07:46:32;4.23;;;2.30;;
4268;SDS011;2148;48.554;7.834;2023-08-06T07:48:58;2.70;;;2.03;;
4268;SDS011;2148;48.554;7.834;2023-08-06T07:51:23;3.50;;;2.20;;
4268;SDS011;2148;48.554;7.834;2023-08-06T07:53:48;2.30;;;2.10;;
4268;SDS011;2148;48.554;7.834;2023-08-06T07:56:13;2.80;;;2.60;;
4268;SDS011;2148;48.554;7.834;2023-08-06T07:58:39;3.43;;;2.07;;
4268;SDS011;2148;48.554;7.834;2023-08-06T08:01:05;2.87;;;1.90;;
4268;SDS011;2148;48.554;7.834;2023-08-06T08:03:31;2.70;;;2.00;;
4268;SDS011;2148;48.554;7.834;2023-08-06T08:05:56;3.43;;;2.20;;
4268;SDS011;2148;48.554;7.834;2023-08-06T08:08:22;1.90;;;1.80;;
4268;SDS011;2148;48.554;7.834;2023-08-06T08:10:48;2.10;;;1.87;;
4268;SDS011;2148;48.554;7.834;2023-08-06T08:13:13;2.57;;;2.23;;
4268;SDS011;2148;48.554;7.834;2023-08-06T08:15:38;2.03;;;1.80;;
4268;SDS011;2148;48.554;7.834;2023-08-06T08:18:03;3.77;;;1.90;;
4268;SDS011;2148;48.554;7.834;2023-08-06T08:20:29;2.90;;;1.90;;
4268;SDS011;2148;48.554;7.834;2023-08-06T08:22:57;1.90;;;1.70;;
4268;SDS011;2148;48.554;7.834;2023-08-06T08:25:23;2.67;;;1.90;;
4268;SDS011;2148;48.554;7.834;2023-08-06T08:27:48;2.03;;;1.70;;
4268;SDS011;2148;48.554;7.834;2023-08-06T08:30:13;2.90;;;2.10;;
4268;SDS011;2148;48.554;7.834;2023-08-06T08:32:39;1.90;;;1.77;;
4268;SDS011;2148;48.554;7.834;2023-08-06T08:35:04;2.50;;;2.30;;
4268;SDS011;2148;48.554;7.834;2023-08-06T08:37:29;1.80;;;1.70;;
4268;SDS011;2148;48.554;7.834;2023-08-06T08:39:54;2.20;;;1.80;;
4268;SDS011;2148;48.554;7.834;2023-08-06T08:42:20;2.03;;;1.83;;
4268;SDS011;2148;48.554;7.834;2023-08-06T08:44:46;1.77;;;1.67;;
4268;SDS011;2148;48.554;7.834;2023-08-06T08:47:11;2.03;;;1.80;;
4268;SDS011;2148;48.554;7.834;2023-08-06T08:49:37;2.17;;;2.07;;
4268;SDS011;2148;48.554;7.834;2023-08-06T08:52:03;2.60;;;2.40;;
4268;SDS011;2148;48.554;7.834;2023-08-06T08:54:35;1.87;;;1.77;;
4268;SDS011;2148;48.554;7.834;2023-08-06T08:57:01;1.73;;;1.63;;
4268;SDS011;2148;48.554;7.834;2023-08-06T08:59:27;1.90;;;1.80;;
4268;SDS011;2148;48.554;7.834;2023-08-06T09:01:52;2.10;;;1.87;;
4268;SDS011;2148;48.554;7.834;2023-08-06T09:04:18;2.00;;;1.90;;
4268;SDS011;2148;48.554;7.834;2023-08-06T09:06:46;2.60;;;2.00;;
4268;SDS011;2148;48.554;7.834;2023-08-06T09:09:13;2.00;;;1.90;;
4268;SDS011;2148;48.554;7.834;2023-08-06T09:11:43;2.10;;;2.00;;
4268;SDS011;2148;48.554;7.834;2023-08-06T09:14:08;2.20;;;2.10;;
4268;SDS011;2148;48.554;7.834;2023-08-06T09:16:34;1.73;;;1.63;;
4268;SDS011;2148;48.554;7.834;2023-08-06T09:19:06;2.10;;;1.90;;
4268;SDS011;2148;48.554;7.834;2023-08-06T09:21:41;2.57;;;2.37;;
4268;SDS011;2148;48.554;7.834;2023-08-06T09:24:11;2.77;;;2.10;;
4268;SDS011;2148;48.554;7.834;2023-08-06T09:26:37;2.57;;;2.23;;
4268;SDS011;2148;48.554;7.834;2023-08-06T09:29:05;2.40;;;2.20;;
4268;SDS011;2148;48.554;7.834;2023-08-06T09:31:41;3.57;;;2.20;;
4268;SDS011;2148;48.554;7.834;2023-08-06T09:34:11;2.80;;;2.27;;
4268;SDS011;2148;48.554;7.834;2023-08-06T09:36:46;2.03;;;1.87;;
4268;SDS011;2148;48.554;7.834;2023-08-06T09:39:16;2.10;;;1.80;;
4268;SDS011;2148;48.554;7.834;2023-08-06T09:41:42;2.00;;;1.90;;
4268;SDS011;2148;48.554;7.834;2023-08-06T09:44:14;2.13;;;2.03;;
4268;SDS011;2148;48.554;7.834;2023-08-06T09:46:47;1.67;;;1.57;;
4268;SDS011;2148;48.554;7.834;2023-08-06T09:49:13;1.67;;;1.57;;
4268;SDS011;2148;48.554;7.834;2023-08-06T09:51:38;1.83;;;1.73;;
4268;SDS011;2148;48.554;7.834;2023-08-06T09:54:04;1.93;;;1.83;;
4268;SDS011;2148;48.554;7.834;2023-08-06T09:56:30;1.90;;;1.80;;
4268;SDS011;2148;48.554;7.834;2023-08-06T09:59:02;1.80;;;1.70;;
4268;SDS011;2148;48.554;7.834;2023-08-06T10:01:27;1.97;;;1.87;;
4268;SDS011;2148;48.554;7.834;2023-08-06T10:03:53;1.80;;;1.70;;
4268;SDS011;2148;48.554;7.834;2023-08-06T10:06:18;1.83;;;1.73;;
4268;SDS011;2148;48.554;7.834;2023-08-06T10:08:45;2.07;;;1.90;;
4268;SDS011;2148;48.554;7.834;2023-08-06T10:11:10;1.80;;;1.70;;
4268;SDS011;2148;48.554;7.834;2023-08-06T10:13:37;2.17;;;2.07;;
4268;SDS011;2148;48.554;7.834;2023-08-06T10:16:03;1.63;;;1.53;;
4268;SDS011;2148;48.554;7.834;2023-08-06T10:18:29;1.97;;;1.87;;
4268;SDS011;2148;48.554;7.834;2023-08-06T10:20:55;2.00;;;1.90;;
4268;SDS011;2148;48.554;7.834;2023-08-06T10:23:20;13.33;;;4.23;;
4268;SDS011;2148;48.554;7.834;2023-08-06T10:25:58;2.40;;;2.27;;
4268;SDS011;2148;48.554;7.834;2023-08-06T10:28:24;3.17;;;2.97;;
4268;SDS011;2148;48.554;7.834;2023-08-06T10:31:00;2.23;;;2.10;;
4268;SDS011;2148;48.554;7.834;2023-08-06T10:33:25;2.30;;;2.20;;
4268;SDS011;2148;48.554;7.834;2023-08-06T10:36:05;2.40;;;2.30;;
4268;SDS011;2148;48.554;7.834;2023-08-06T10:38:34;2.47;;;2.27;;
4268;SDS011;2148;48.554;7.834;2023-08-06T10:41:02;2.60;;;2.40;;
4268;SDS011;2148;48.554;7.834;2023-08-06T10:43:29;3.00;;;2.70;;
4268;SDS011;2148;48.554;7.834;2023-08-06T10:45:57;2.70;;;2.50;;
4268;SDS011;2148;48.554;7.834;2023-08-06T10:48:35;3.90;;;2.43;;
4268;SDS011;2148;48.554;7.834;2023-08-06T10:51:07;3.77;;;2.77;;
4268;SDS011;2148;48.554;7.834;2023-08-06T10:53:34;2.73;;;2.57;;
4268;SDS011;2148;48.554;7.834;2023-08-06T10:56:13;3.30;;;3.00;;
4268;SDS011;2148;48.554;7.834;2023-08-06T10:58:39;2.50;;;2.30;;
4268;SDS011;2148;48.554;7.834;2023-08-06T11:01:04;2.83;;;2.63;;
4268;SDS011;2148;48.554;7.834;2023-08-06T11:03:30;3.17;;;2.87;;
4268;SDS011;2148;48.554;7.834;2023-08-06T11:05:56;2.67;;;2.47;;
4268;SDS011;2148;48.554;7.834;2023-08-06T11:08:25;2.93;;;2.63;;
4268;SDS011;2148;48.554;7.834;2023-08-06T11:10:51;3.30;;;3.10;;
4268;SDS011;2148;48.554;7.834;2023-08-06T11:13:17;3.30;;;3.00;;
4268;SDS011;2148;48.554;7.834;2023-08-06T11:15:43;3.47;;;3.00;;
4268;SDS011;2148;48.554;7.834;2023-08-06T11:18:09;3.10;;;2.90;;
4268;SDS011;2148;48.554;7.834;2023-08-06T11:20:35;3.30;;;3.00;;
4268;SDS011;2148;48.554;7.834;2023-08-06T11:23:00;3.10;;;2.90;;
4268;SDS011;2148;48.554;7.834;2023-08-06T11:25:25;2.80;;;2.57;;
4268;SDS011;2148;48.554;7.834;2023-08-06T11:27:50;2.90;;;2.70;;
4268;SDS011;2148;48.554;7.834;2023-08-06T11:30:15;3.23;;;3.03;;
4268;SDS011;2148;48.554;7.834;2023-08-06T11:32:47;10.03;;;9.63;;
4268;SDS011;2148;48.554;7.834;2023-08-06T11:35:13;2.80;;;2.60;;
4268;SDS011;2148;48.554;7.834;2023-08-06T11:37:39;2.60;;;2.40;;
4268;SDS011;2148;48.554;7.834;2023-08-06T11:40:07;2.60;;;2.40;;
4268;SDS011;2148;48.554;7.834;2023-08-06T11:42:33;2.70;;;2.50;;
4268;SDS011;2148;48.554;7.834;2023-08-06T11:45:00;2.90;;;2.60;;
4268;SDS011;2148;48.554;7.834;2023-08-06T11:47:27;2.73;;;2.30;;
4268;SDS011;2148;48.554;7.834;2023-08-06T11:49:53;2.60;;;2.40;;
4268;SDS011;2148;48.554;7.834;2023-08-06T11:52:24;2.10;;;2.00;;
4268;SDS011;2148;48.554;7.834;2023-08-06T11:55:04;2.50;;;2.30;;
4268;SDS011;2148;48.554;7.834;2023-08-06T11:57:35;2.30;;;2.20;;
4268;SDS011;2148;48.554;7.834;2023-08-06T12:00:04;2.47;;;2.37;;
4268;SDS011;2148;48.554;7.834;2023-08-06T12:02:32;2.40;;;2.30;;
4268;SDS011;2148;48.554;7.834;2023-08-06T12:05:03;2.10;;;2.00;;
4268;SDS011;2148;48.554;7.834;2023-08-06T12:07:38;1.93;;;1.70;;
4268;SDS011;2148;48.554;7.834;2023-08-06T12:10:05;1.80;;;1.70;;
4268;SDS011;2148;48.554;7.834;2023-08-06T12:12:30;2.10;;;2.00;;
4268;SDS011;2148;48.554;7.834;2023-08-06T12:14:56;2.23;;;2.13;;
4268;SDS011;2148;48.554;7.834;2023-08-06T12:17:22;2.13;;;2.03;;
4268;SDS011;2148;48.554;7.834;2023-08-06T12:19:50;2.10;;;2.00;;
4268;SDS011;2148;48.554;7.834;2023-08-06T12:22:16;2.13;;;2.03;;
4268;SDS011;2148;48.554;7.834;2023-08-06T12:24:44;2.40;;;1.80;;
4268;SDS011;2148;48.554;7.834;2023-08-06T12:27:11;2.17;;;2.07;;
4268;SDS011;2148;48.554;7.834;2023-08-06T12:29:37;2.00;;;1.90;;
4268;SDS011;2148;48.554;7.834;2023-08-06T12:32:05;2.20;;;2.10;;
4268;SDS011;2148;48.554;7.834;2023-08-06T12:34:31;2.10;;;2.00;;
4268;SDS011;2148;48.554;7.834;2023-08-06T12:36:56;2.13;;;2.03;;
4268;SDS011;2148;48.554;7.834;2023-08-06T12:39:21;2.20;;;2.00;;
4268;SDS011;2148;48.554;7.834;2023-08-06T12:41:46;2.50;;;2.40;;
4268;SDS011;2148;48.554;7.834;2023-08-06T12:44:12;2.30;;;2.20;;
4268;SDS011;2148;48.554;7.834;2023-08-06T12:46:37;2.27;;;2.17;;
4268;SDS011;2148;48.554;7.834;2023-08-06T12:49:02;2.23;;;2.13;;
4268;SDS011;2148;48.554;7.834;2023-08-06T12:51:28;2.10;;;2.00;;
4268;SDS011;2148;48.554;7.834;2023-08-06T12:53:53;2.60;;;2.40;;
4268;SDS011;2148;48.554;7.834;2023-08-06T12:56:18;2.30;;;2.10;;
4268;SDS011;2148;48.554;7.834;2023-08-06T12:58:43;2.30;;;2.20;;
4268;SDS011;2148;48.554;7.834;2023-08-06T13:01:09;2.40;;;2.20;;
4268;SDS011;2148;48.554;7.834;2023-08-06T13:03:34;2.40;;;2.20;;
4268;SDS011;2148;48.554;7.834;2023-08-06T13:05:59;2.60;;;2.03;;
4268;SDS011;2148;48.554;7.834;2023-08-06T13:08:25;5.00;;;2.83;;
4268;SDS011;2148;48.554;7.834;2023-08-06T13:10:50;2.60;;;1.80;;
4268;SDS011;2148;48.554;7.834;2023-08-06T13:13:15;2.63;;;2.43;;
4268;SDS011;2148;48.554;7.834;2023-08-06T13:15:40;2.10;;;2.00;;
4268;SDS011;2148;48.554;7.834;2023-08-06T13:18:06;2.63;;;2.03;;
4268;SDS011;2148;48.554;7.834;2023-08-06T13:20:31;2.30;;;2.10;;
4268;SDS011;2148;48.554;7.834;2023-08-06T13:22:58;2.30;;;2.20;;
4268;SDS011;2148;48.554;7.834;2023-08-06T13:25:23;2.33;;;2.20;;
4268;SDS011;2148;48.554;7.834;2023-08-06T13:27:48;2.50;;;2.30;;
4268;SDS011;2148;48.554;7.834;2023-08-06T13:30:14;2.40;;;2.30;;
4268;SDS011;2148;48.554;7.834;2023-08-06T13:32:39;2.67;;;2.47;;
4268;SDS011;2148;48.554;7.834;2023-08-06T13:35:05;2.40;;;2.20;;
4268;SDS011;2148;48.554;7.834;2023-08-06T13:37:30;2.27;;;2.17;;
4268;SDS011;2148;48.554;7.834;2023-08-06T13:39:55;2.17;;;1.97;;
4268;SDS011;2148;48.554;7.834;2023-08-06T13:42:21;2.23;;;2.13;;
4268;SDS011;2148;48.554;7.834;2023-08-06T13:44:47;2.33;;;2.00;;
4268;SDS011;2148;48.554;7.834;2023-08-06T13:47:12;2.40;;;2.30;;
4268;SDS011;2148;48.554;7.834;2023-08-06T13:49:37;2.70;;;2.30;;
4268;SDS011;2148;48.554;7.834;2023-08-06T13:52:03;2.30;;;2.10;;
4268;SDS011;2148;48.554;7.834;2023-08-06T13:54:28;2.30;;;2.20;;
4268;SDS011;2148;48.554;7.834;2023-08-06T13:56:53;2.30;;;2.20;;
4268;SDS011;2148;48.554;7.834;2023-08-06T13:59:19;1.80;;;1.70;;
4268;SDS011;2148;48.554;7.834;2023-08-06T14:01:45;2.13;;;2.03;;
4268;SDS011;2148;48.554;7.834;2023-08-06T14:04:10;2.53;;;2.37;;
4268;SDS011;2148;48.554;7.834;2023-08-06T14:06:35;2.50;;;2.30;;
4268;SDS011;2148;48.554;7.834;2023-08-06T14:09:01;2.60;;;2.10;;
4268;SDS011;2148;48.554;7.834;2023-08-06T14:11:26;2.70;;;2.50;;
4268;SDS011;2148;48.554;7.834;2023-08-06T14:13:51;2.63;;;2.40;;
4268;SDS011;2148;48.554;7.834;2023-08-06T14:16:16;2.23;;;2.13;;
4268;SDS011;2148;48.554;7.834;2023-08-06T14:18:42;3.07;;;2.77;;
4268;SDS011;2148;48.554;7.834;2023-08-06T14:21:07;2.40;;;2.30;;
4268;SDS011;2148;48.554;7.834;2023-08-06T14:23:33;2.60;;;2.40;;
4268;SDS011;2148;48.554;7.834;2023-08-06T14:25:58;2.47;;;2.27;;
4268;SDS011;2148;48.554;7.834;2023-08-06T14:28:23;2.30;;;2.20;;
4268;SDS011;2148;48.554;7.834;2023-08-06T14:30:49;2.80;;;2.60;;
4268;SDS011;2148;48.554;7.834;2023-08-06T14:33:14;3.03;;;2.20;;
4268;SDS011;2148;48.554;7.834;2023-08-06T14:35:39;2.60;;;2.40;;
4268;SDS011;2148;48.554;7.834;2023-08-06T14:38:04;2.30;;;2.10;;
4268;SDS011;2148;48.554;7.834;2023-08-06T14:40:30;2.80;;;2.20;;
4268;SDS011;2148;48.554;7.834;2023-08-06T14:43:00;2.17;;;2.07;;
4268;SDS011;2148;48.554;7.834;2023-08-06T14:45:26;2.27;;;2.10;;
4268;SDS011;2148;48.554;7.834;2023-08-06T14:47:51;2.33;;;2.17;;
4268;SDS011;2148;48.554;7.834;2023-08-06T14:50:17;2.57;;;2.37;;
4268;SDS011;2148;48.554;7.834;2023-08-06T14:52:42;2.40;;;2.30;;
4268;SDS011;2148;48.554;7.834;2023-08-06T14:55:07;2.33;;;2.23;;
4268;SDS011;2148;48.554;7.834;2023-08-06T14:57:33;3.00;;;2.70;;
4268;SDS011;2148;48.554;7.834;2023-08-06T14:59:58;2.23;;;2.03;;
4268;SDS011;2148;48.554;7.834;2023-08-06T15:02:23;2.43;;;2.33;;
4268;SDS011;2148;48.554;7.834;2023-08-06T15:04:48;2.60;;;2.40;;
4268;SDS011;2148;48.554;7.834;2023-08-06T15:07:15;2.33;;;2.13;;
4268;SDS011;2148;48.554;7.834;2023-08-06T15:09:40;2.63;;;2.27;;
4268;SDS011;2148;48.554;7.834;2023-08-06T15:12:05;2.33;;;2.13;;
4268;SDS011;2148;48.554;7.834;2023-08-06T15:14:31;2.50;;;2.30;;